Time;durP1;ratioP1;P1;durP2;ratioP2;P2;SDS_P1;SDS_P2;PMS_P1;PMS_P2;Temp;Humidity;BMP_temperature;BMP_pressure;BME280_temperature;BME280_humidity;BME280_pressure;Samples;Min_cycle;Max_cycle;Signal;HPM_P1;HPM_P2
2022/07/05 00:00:13;;;;;;;3.67;3.33;;;18.60;91.90;;;;;;5098707;28;20177;-45
2022/07/05 00:02:39;;;;;;;4.27;3.90;;;18.60;92.10;;;;;;5098843;28;20197;-45
2022/07/05 00:05:05;;;;;;;4.10;3.70;;;18.50;92.30;;;;;;5098186;28;20421;-45
2022/07/05 00:07:30;;;;;;;4.40;3.93;;;18.50;92.50;;;;;;5098408;28;20420;-45
2022/07/05 00:09:57;;;;;;;3.73;3.43;;;18.50;92.60;;;;;;5097417;28;20432;-44
2022/07/05 00:12:28;;;;;;;4.90;3.80;;;18.50;92.90;;;;;;5097582;28;20269;-45
2022/07/05 00:14:54;;;;;;;4.67;4.27;;;18.50;92.90;;;;;;5097246;28;20431;-42
2022/07/05 00:17:20;;;;;;;5.57;3.40;;;18.50;93.00;;;;;;5098126;28;20427;-42
2022/07/05 00:19:46;;;;;;;5.20;4.70;;;18.50;93.10;;;;;;5097991;28;20433;-43
2022/07/05 00:22:13;;;;;;;4.00;3.70;;;18.40;93.20;;;;;;5097862;28;20437;-45
2022/07/05 00:24:39;;;;;;;4.60;4.20;;;18.40;93.30;;;;;;5098627;28;20423;-45
2022/07/05 00:27:04;;;;;;;5.00;4.30;;;18.40;93.30;;;;;;5097207;28;20431;-44
2022/07/05 00:29:30;;;;;;;4.23;3.83;;;18.40;93.40;;;;;;5097875;28;20528;-44
2022/07/05 00:31:56;;;;;;;4.70;4.30;;;18.30;93.50;;;;;;5098174;28;20629;-45
2022/07/05 00:34:22;;;;;;;5.00;4.00;;;18.30;93.70;;;;;;5097956;28;20177;-46
2022/07/05 00:36:47;;;;;;;4.80;4.37;;;18.30;93.90;;;;;;5097989;28;20178;-44
2022/07/05 00:39:14;;;;;;;5.87;4.67;;;18.30;93.90;;;;;;5097622;28;20495;-44
2022/07/05 00:41:41;;;;;;;5.40;4.70;;;18.20;93.90;;;;;;5096319;28;20436;-43
2022/07/05 00:44:10;;;;;;;4.47;3.70;;;18.20;93.90;;;;;;5097465;28;20191;-45
2022/07/05 00:46:36;;;;;;;4.93;4.50;;;18.20;94.00;;;;;;5080408;28;20731;-44
2022/07/05 00:49:04;;;;;;;5.27;4.60;;;18.20;94.00;;;;;;5097590;28;20568;-46
2022/07/05 00:51:34;;;;;;;4.40;4.10;;;18.20;94.10;;;;;;5097656;28;20438;-45
2022/07/05 00:54:01;;;;;;;4.53;4.13;;;18.10;94.10;;;;;;5096918;28;20495;-44
2022/07/05 00:56:26;;;;;;;4.67;4.23;;;18.10;94.50;;;;;;5096890;28;20763;-44
2022/07/05 00:58:52;;;;;;;4.20;3.70;;;18.00;94.50;;;;;;5096525;28;20448;-45
2022/07/05 01:01:18;;;;;;;5.00;4.60;;;18.00;94.50;;;;;;5097067;28;20174;-44
2022/07/05 01:03:45;;;;;;;4.80;4.30;;;18.00;94.60;;;;;;5097247;28;20542;-45
2022/07/05 01:06:12;;;;;;;4.70;4.30;;;18.00;94.70;;;;;;5096918;28;20534;-44
2022/07/05 01:08:41;;;;;;;4.77;4.37;;;17.90;94.60;;;;;;5097168;28;20844;-43
2022/07/05 01:11:08;;;;;;;4.17;3.87;;;17.90;94.80;;;;;;5096832;28;20514;-44
2022/07/05 01:13:35;;;;;;;7.30;5.20;;;17.90;94.70;;;;;;5096750;28;20475;-46
2022/07/05 01:16:02;;;;;;;5.00;4.23;;;17.90;94.70;;;;;;5097540;28;20431;-42
2022/07/05 01:18:28;;;;;;;5.00;4.50;;;17.90;94.80;;;;;;5097186;28;20428;-42
2022/07/05 01:20:54;;;;;;;4.43;4.03;;;17.90;94.80;;;;;;5097074;28;20427;-46
2022/07/05 01:23:20;;;;;;;4.40;4.00;;;17.90;94.80;;;;;;5097539;28;20506;-43
2022/07/05 01:25:47;;;;;;;4.50;4.00;;;17.90;94.70;;;;;;5096015;28;20556;-43
2022/07/05 01:28:14;;;;;;;5.00;3.80;;;17.80;94.70;;;;;;5095563;28;20429;-43
2022/07/05 01:30:42;;;;;;;4.33;3.93;;;17.80;94.80;;;;;;5096166;28;20426;-43
2022/07/05 01:33:09;;;;;;;4.37;4.03;;;17.80;95.10;;;;;;5096992;28;20499;-44
2022/07/05 01:35:35;;;;;;;5.10;4.60;;;17.70;94.80;;;;;;5097616;28;20428;-43
2022/07/05 01:38:01;;;;;;;4.50;4.10;;;17.70;94.90;;;;;;5097062;28;20408;-43
2022/07/05 01:40:27;;;;;;;4.63;4.27;;;17.70;95.20;;;;;;5097042;28;20422;-45
2022/07/05 01:42:53;;;;;;;4.60;4.20;;;17.60;95.30;;;;;;5096936;28;20780;-45
2022/07/05 01:48:09;;;;;;;4.17;3.87;;;17.60;95.20;;;;;;5096849;28;20197;-47
2022/07/05 01:50:45;;;;;;;4.23;3.93;;;17.60;95.40;;;;;;5097471;28;20767;-45
2022/07/05 01:53:18;;;;;;;5.80;4.43;;;17.50;95.30;;;;;;5078979;28;20552;-43
2022/07/05 01:55:45;;;;;;;4.10;3.80;;;17.50;95.70;;;;;;5096157;28;20447;-46
2022/07/05 01:58:11;;;;;;;4.50;4.20;;;17.40;95.80;;;;;;5096320;28;20422;-45
2022/07/05 02:00:48;;;;;;;4.83;4.40;;;17.50;96.00;;;;;;5096656;28;20450;-45
2022/07/05 02:03:15;;;;;;;4.50;4.10;;;17.40;95.90;;;;;;5096560;28;20896;-45
2022/07/05 02:05:41;;;;;;;4.10;3.80;;;17.40;96.00;;;;;;5096142;28;20466;-44
2022/07/05 02:08:07;;;;;;;4.20;3.90;;;17.40;96.00;;;;;;5099150;28;20754;-46
2022/07/05 02:10:35;;;;;;;4.00;3.60;;;17.40;95.90;;;;;;5100564;28;20471;-47
2022/07/05 02:13:02;;;;;;;4.93;4.53;;;17.40;95.80;;;;;;5100025;28;20312;-43
2022/07/05 02:15:30;;;;;;;4.53;4.10;;;17.40;95.60;;;;;;5099529;28;20475;-47
2022/07/05 02:17:56;;;;;;;5.10;4.60;;;17.40;95.70;;;;;;5099103;28;20421;-45
2022/07/05 02:20:21;;;;;;;5.00;4.60;;;17.40;95.80;;;;;;5097975;28;20827;-44
2022/07/05 02:22:47;;;;;;;4.10;3.77;;;17.40;95.80;;;;;;5099019;28;20649;-45
2022/07/05 02:25:13;;;;;;;4.73;4.33;;;17.40;95.70;;;;;;5099046;28;20520;-43
2022/07/05 02:27:38;;;;;;;4.63;4.23;;;17.40;95.80;;;;;;5099382;28;20463;-46
2022/07/05 02:30:08;;;;;;;4.20;3.90;;;17.30;95.80;;;;;;5100602;28;20459;-45
2022/07/05 02:32:33;;;;;;;4.43;4.03;;;17.30;95.80;;;;;;5099721;28;20253;-44
2022/07/05 02:34:59;;;;;;;4.50;4.10;;;17.30;95.80;;;;;;5100328;28;20519;-44
2022/07/05 02:37:25;;;;;;;4.60;4.20;;;17.30;95.90;;;;;;5099818;28;20174;-46
2022/07/05 02:39:51;;;;;;;6.00;4.70;;;17.30;96.00;;;;;;5100002;28;20579;-43
2022/07/05 02:42:17;;;;;;;4.70;4.40;;;17.30;95.90;;;;;;5099541;28;20432;-45
2022/07/05 02:44:42;;;;;;;4.77;4.37;;;17.20;95.80;;;;;;5099474;28;20478;-45
2022/07/05 02:47:08;;;;;;;5.03;4.63;;;17.20;96.10;;;;;;5099927;28;20266;-45
2022/07/05 02:49:33;;;;;;;4.40;4.10;;;17.10;96.10;;;;;;5099128;28;20223;-44
2022/07/05 02:51:59;;;;;;;4.60;4.27;;;17.10;96.20;;;;;;5099694;28;20170;-46
2022/07/05 02:54:25;;;;;;;4.90;4.50;;;17.10;96.10;;;;;;5098484;28;20175;-45
2022/07/05 02:56:50;;;;;;;4.37;3.97;;;17.10;96.10;;;;;;5099074;28;20185;-44
2022/07/05 02:59:16;;;;;;;4.03;3.73;;;17.20;96.20;;;;;;5098814;28;20495;-45
2022/07/05 03:01:42;;;;;;;4.60;4.20;;;17.20;96.00;;;;;;5097188;28;20173;-43
2022/07/05 03:04:09;;;;;;;5.20;4.70;;;17.10;96.40;;;;;;5097145;28;20203;-44
2022/07/05 03:06:35;;;;;;;4.63;4.20;;;17.10;96.10;;;;;;5098177;28;20178;-43
2022/07/05 03:09:01;;;;;;;4.97;4.60;;;17.10;96.10;;;;;;5098350;28;20493;-46
2022/07/05 03:11:27;;;;;;;4.87;4.47;;;17.00;95.90;;;;;;5098322;28;20418;-45
2022/07/05 03:13:53;;;;;;;4.53;4.23;;;17.00;95.90;;;;;;5097710;28;20611;-46
2022/07/05 03:16:19;;;;;;;4.70;4.30;;;17.00;96.00;;;;;;5097951;28;20176;-44
2022/07/05 03:18:44;;;;;;;4.43;3.83;;;16.90;96.10;;;;;;5097557;28;20184;-45
2022/07/05 03:21:10;;;;;;;4.83;4.40;;;16.90;96.30;;;;;;5098207;28;20221;-45
2022/07/05 03:23:36;;;;;;;4.60;4.20;;;16.80;96.50;;;;;;5099038;28;20212;-43
2022/07/05 03:26:01;;;;;;;5.90;4.17;;;16.90;96.60;;;;;;5098469;28;20200;-44
2022/07/05 03:28:27;;;;;;;4.30;3.90;;;16.90;96.60;;;;;;5098947;28;20217;-44
2022/07/05 03:30:52;;;;;;;4.30;4.00;;;16.90;96.50;;;;;;5097829;28;20188;-45
2022/07/05 03:33:18;;;;;;;4.30;3.90;;;16.90;96.50;;;;;;5098682;28;20235;-45
2022/07/05 03:35:44;;;;;;;4.30;3.90;;;16.90;96.50;;;;;;5098432;28;20181;-44
2022/07/05 03:38:09;;;;;;;5.10;4.63;;;16.90;96.60;;;;;;5099305;28;20169;-45
2022/07/05 03:40:35;;;;;;;5.10;4.23;;;16.90;96.60;;;;;;5098617;28;20187;-44
2022/07/05 03:43:01;;;;;;;4.33;3.87;;;16.90;96.40;;;;;;5098879;28;20515;-47
2022/07/05 03:45:26;;;;;;;4.40;4.10;;;16.90;96.30;;;;;;5098769;28;20212;-46
2022/07/05 03:47:52;;;;;;;4.30;3.90;;;16.90;96.50;;;;;;5098539;28;20171;-44
2022/07/05 03:50:18;;;;;;;4.20;3.90;;;16.90;96.30;;;;;;5098694;28;20239;-42
2022/07/05 03:52:45;;;;;;;7.07;3.90;;;16.90;96.40;;;;;;5097483;28;20244;-44
2022/07/05 03:55:11;;;;;;;4.80;4.50;;;16.90;96.50;;;;;;5097220;28;20481;-42
2022/07/05 03:57:36;;;;;;;4.50;4.10;;;16.90;96.40;;;;;;5097595;28;20412;-44
2022/07/05 04:00:03;;;;;;;4.80;4.50;;;16.90;96.50;;;;;;5096707;28;20185;-45
2022/07/05 04:02:28;;;;;;;4.80;4.30;;;17.00;96.30;;;;;;5096216;28;20188;-44
2022/07/05 04:04:54;;;;;;;4.90;4.40;;;17.00;96.30;;;;;;5096566;28;20862;-45
2022/07/05 04:07:20;;;;;;;5.20;4.80;;;17.00;96.30;;;;;;5096180;28;20553;-44
2022/07/05 04:09:45;;;;;;;6.33;4.70;;;17.00;96.40;;;;;;5096036;28;20272;-45
2022/07/05 04:12:11;;;;;;;4.20;3.90;;;17.00;96.30;;;;;;5095959;28;20200;-45
2022/07/05 04:14:37;;;;;;;4.50;4.20;;;17.00;96.20;;;;;;5097468;28;20169;-46
2022/07/05 04:17:03;;;;;;;4.00;3.70;;;17.00;96.30;;;;;;5097713;28;20466;-44
2022/07/05 04:19:28;;;;;;;5.23;4.50;;;17.10;96.30;;;;;;5098199;28;20192;-45
2022/07/05 04:21:54;;;;;;;5.33;4.83;;;17.10;96.30;;;;;;5098154;28;20548;-43
2022/07/05 04:24:20;;;;;;;4.47;3.93;;;17.20;96.20;;;;;;5096548;28;20174;-43
2022/07/05 04:26:45;;;;;;;4.23;3.50;;;17.20;96.10;;;;;;5094207;28;20185;-44
2022/07/05 04:29:11;;;;;;;4.63;4.33;;;17.20;96.10;;;;;;5096346;28;20268;-46
2022/07/05 04:31:37;;;;;;;4.53;4.20;;;17.30;95.90;;;;;;5095560;28;20497;-44
2022/07/05 04:34:02;;;;;;;4.40;4.00;;;17.30;96.00;;;;;;5094279;28;20551;-47
2022/07/05 04:36:28;;;;;;;4.00;3.70;;;17.40;95.80;;;;;;5094766;28;20201;-43
2022/07/05 04:38:54;;;;;;;4.30;4.00;;;17.40;95.70;;;;;;5095373;28;20177;-44
2022/07/05 04:41:20;;;;;;;4.47;4.17;;;17.60;95.60;;;;;;5095543;28;20163;-45
2022/07/05 04:43:45;;;;;;;4.27;3.87;;;17.60;95.30;;;;;;5092821;28;20273;-44
2022/07/05 04:46:11;;;;;;;4.70;3.70;;;17.70;95.00;;;;;;5093582;28;20181;-43
2022/07/05 04:48:36;;;;;;;4.37;3.97;;;17.80;94.90;;;;;;5093763;28;20223;-45
2022/07/05 04:51:02;;;;;;;4.20;3.80;;;17.80;94.60;;;;;;5093299;28;20246;-44
2022/07/05 04:53:28;;;;;;;4.17;3.50;;;18.00;94.50;;;;;;5091141;28;20215;-46
2022/07/05 04:55:53;;;;;;;4.10;3.80;;;18.00;94.30;;;;;;5090777;28;20178;-44
2022/07/05 04:58:19;;;;;;;4.17;3.77;;;18.10;94.20;;;;;;5090998;28;20171;-44
2022/07/05 05:00:45;;;;;;;5.30;3.57;;;18.10;94.00;;;;;;5091127;28;20254;-43
2022/07/05 05:03:10;;;;;;;4.27;3.97;;;18.20;94.00;;;;;;5092974;28;20607;-43
2022/07/05 05:05:36;;;;;;;4.47;4.07;;;18.30;93.80;;;;;;5092437;28;20183;-44
2022/07/05 05:08:02;;;;;;;4.53;4.13;;;18.30;93.50;;;;;;5093990;28;20171;-45
2022/07/05 05:10:27;;;;;;;4.60;4.00;;;18.30;93.30;;;;;;5092874;28;20211;-43
2022/07/05 05:12:53;;;;;;;5.80;3.73;;;18.30;93.10;;;;;;5090986;28;20661;-45
2022/07/05 05:15:19;;;;;;;4.63;3.80;;;18.40;93.10;;;;;;5090568;28;20168;-46
2022/07/05 05:17:44;;;;;;;4.37;3.93;;;18.40;93.00;;;;;;5090642;28;20183;-44
2022/07/05 05:20:16;;;;;;;4.47;4.00;;;18.40;92.70;;;;;;5091378;28;20195;-44
2022/07/05 05:22:42;;;;;;;3.80;3.50;;;18.40;92.20;;;;;;5091095;28;20181;-43
2022/07/05 05:25:09;;;;;;;3.37;3.07;;;18.40;92.30;;;;;;5092095;28;20744;-44
2022/07/05 05:27:35;;;;;;;5.53;3.70;;;18.40;92.50;;;;;;5089207;28;20782;-46
2022/07/05 05:30:00;;;;;;;17.57;4.20;;;18.50;92.20;;;;;;5090889;28;20415;-46
2022/07/05 05:32:26;;;;;;;6.90;3.70;;;18.60;91.70;;;;;;5089414;28;20498;-44
2022/07/05 05:34:52;;;;;;;4.43;3.67;;;18.60;91.50;;;;;;5087479;28;20173;-44
2022/07/05 05:37:18;;;;;;;3.57;3.27;;;18.70;91.50;;;;;;5087289;28;20178;-44
2022/07/05 05:39:43;;;;;;;3.50;3.20;;;18.80;91.70;;;;;;5089545;28;20262;-45
2022/07/05 05:42:09;;;;;;;3.63;3.33;;;18.90;91.70;;;;;;5089275;28;20359;-47
2022/07/05 05:44:34;;;;;;;3.90;3.47;;;18.90;91.00;;;;;;5091044;28;20499;-45
2022/07/05 05:47:01;;;;;;;6.13;3.90;;;19.00;91.10;;;;;;5091375;28;20415;-44
2022/07/05 05:49:27;;;;;;;3.97;3.67;;;19.10;91.00;;;;;;5091038;28;20172;-46
2022/07/05 05:51:53;;;;;;;3.17;2.83;;;19.20;90.60;;;;;;5089975;28;20432;-46
2022/07/05 05:54:18;;;;;;;3.87;3.00;;;19.30;90.40;;;;;;5091779;28;20623;-44
2022/07/05 05:56:44;;;;;;;3.50;3.20;;;19.30;90.00;;;;;;5094899;28;20182;-44
2022/07/05 05:59:09;;;;;;;3.30;2.77;;;19.50;89.80;;;;;;5091207;28;20227;-44
2022/07/05 06:01:35;;;;;;;3.23;2.57;;;19.60;89.20;;;;;;5089525;28;20189;-44
2022/07/05 06:04:01;;;;;;;3.40;3.07;;;19.70;89.20;;;;;;5091394;28;20180;-45
2022/07/05 06:06:26;;;;;;;3.53;2.97;;;19.80;88.40;;;;;;5092112;28;20467;-45
2022/07/05 06:08:52;;;;;;;5.00;2.73;;;20.00;87.90;;;;;;5092413;28;20263;-45
2022/07/05 06:11:18;;;;;;;6.67;2.93;;;20.10;86.80;;;;;;5091295;28;20564;-43
2022/07/05 06:13:43;;;;;;;6.03;2.33;;;20.20;85.10;;;;;;5095261;28;20291;-44
2022/07/05 06:16:09;;;;;;;3.23;2.57;;;20.30;82.40;;;;;;5093447;28;20511;-48
2022/07/05 06:18:35;;;;;;;5.23;2.70;;;20.40;81.50;;;;;;5092759;28;20610;-49
2022/07/05 06:21:01;;;;;;;3.03;2.20;;;20.40;81.10;;;;;;5091302;28;20590;-45
2022/07/05 06:23:27;;;;;;;5.20;2.57;;;20.50;81.70;;;;;;5092819;28;20422;-44
2022/07/05 06:25:53;;;;;;;2.67;2.23;;;20.60;81.70;;;;;;5093106;28;20170;-44
2022/07/05 06:28:19;;;;;;;3.93;2.27;;;20.70;80.00;;;;;;5091329;28;20668;-45
2022/07/05 06:30:44;;;;;;;3.10;2.23;;;20.80;79.80;;;;;;5093544;28;20203;-44
2022/07/05 06:33:10;;;;;;;2.97;1.77;;;20.90;79.80;;;;;;5092575;28;20616;-45
2022/07/05 06:35:36;;;;;;;2.10;1.90;;;21.10;78.50;;;;;;5077331;28;20529;-45
2022/07/05 06:38:04;;;;;;;2.63;1.87;;;21.20;76.80;;;;;;5077249;28;20164;-46
2022/07/05 06:40:32;;;;;;;8.13;2.33;;;21.30;75.80;;;;;;5076042;28;20408;-44
2022/07/05 06:43:04;;;;;;;2.27;2.07;;;21.40;75.30;;;;;;5074475;28;20421;-46
2022/07/05 06:45:29;;;;;;;2.70;1.90;;;21.50;74.30;;;;;;5074757;28;20465;-44
2022/07/05 06:48:06;;;;;;;1.90;1.80;;;21.60;74.60;;;;;;5076127;28;20451;-44
2022/07/05 06:50:35;;;;;;;3.00;1.70;;;21.80;74.90;;;;;;5075996;28;20201;-47
2022/07/05 06:53:01;;;;;;;4.50;1.77;;;22.00;73.90;;;;;;5072870;28;20735;-44
2022/07/05 06:55:27;;;;;;;3.80;2.10;;;22.20;72.90;;;;;;5072892;28;20452;-45
2022/07/05 06:58:07;;;;;;;3.00;1.60;;;22.40;73.60;;;;;;5074028;28;20417;-45
2022/07/05 07:00:33;;;;;;;2.00;1.80;;;22.60;72.10;;;;;;5073558;28;20852;-46
2022/07/05 07:02:59;;;;;;;2.90;1.93;;;22.80;70.50;;;;;;5072378;28;20703;-45
2022/07/05 07:05:25;;;;;;;3.20;1.80;;;23.10;70.40;;;;;;5073624;28;20719;-45
2022/07/05 07:10:35;;;;;;;3.50;1.70;;;23.20;64.50;;;;;;5071302;28;20422;-45
2022/07/05 07:13:01;;;;;;;3.40;1.93;;;23.30;64.50;;;;;;5071197;28;20479;-46
2022/07/05 07:15:28;;;;;;;1.80;1.57;;;23.30;64.60;;;;;;5072055;28;20236;-46
2022/07/05 07:17:53;;;;;;;3.00;1.63;;;23.40;62.80;;;;;;5055711;28;20459;-46
2022/07/05 07:20:19;;;;;;;1.73;1.50;;;23.50;60.40;;;;;;5072551;28;20445;-48
2022/07/05 07:22:45;;;;;;;3.73;1.93;;;23.60;60.30;;;;;;5073306;28;20421;-46
2022/07/05 07:25:11;;;;;;;2.33;1.90;;;23.80;60.10;;;;;;5074316;28;20173;-46
2022/07/05 07:27:51;;;;;;;1.90;1.70;;;24.00;59.50;;;;;;5071462;28;20183;-47
2022/07/05 07:30:22;;;;;;;3.23;2.20;;;24.10;58.80;;;;;;5071540;28;20825;-46
2022/07/05 07:32:48;;;;;;;2.00;1.70;;;24.10;58.70;;;;;;5073717;28;20711;-46
2022/07/05 07:35:14;;;;;;;2.23;2.03;;;24.20;58.90;;;;;;5074230;28;20466;-45
2022/07/05 07:37:40;;;;;;;4.93;1.90;;;24.30;59.00;;;;;;5078818;28;20270;-48
2022/07/05 07:40:06;;;;;;;2.80;1.87;;;24.60;59.00;;;;;;5094204;28;20175;-47
2022/07/05 07:42:32;;;;;;;3.20;1.90;;;24.80;58.40;;;;;;5093406;28;20435;-47
2022/07/05 07:44:58;;;;;;;4.20;2.07;;;24.90;56.60;;;;;;5094542;28;20689;-47
2022/07/05 07:47:24;;;;;;;2.97;1.70;;;25.00;56.10;;;;;;5094409;28;21149;-46
2022/07/05 07:49:50;;;;;;;3.37;2.03;;;25.10;56.10;;;;;;5094262;28;20185;-46
2022/07/05 07:52:15;;;;;;;2.20;1.90;;;25.30;55.70;;;;;;5095393;28;20404;-47
2022/07/05 07:54:41;;;;;;;3.23;2.40;;;25.60;54.30;;;;;;5095334;28;20175;-46
2022/07/05 07:57:07;;;;;;;5.60;2.07;;;25.60;53.40;;;;;;5095602;28;20174;-46
2022/07/05 07:59:33;;;;;;;2.77;2.00;;;25.70;53.10;;;;;;5095953;28;20174;-46
2022/07/05 08:01:59;;;;;;;2.60;1.77;;;25.80;52.90;;;;;;5095975;28;20237;-47
2022/07/05 08:04:24;;;;;;;1.60;1.50;;;26.00;53.00;;;;;;5094806;28;20414;-47
2022/07/05 08:06:50;;;;;;;2.90;1.93;;;26.20;52.00;;;;;;5096107;28;20602;-46
2022/07/05 08:09:16;;;;;;;3.27;1.60;;;26.50;53.00;;;;;;5095651;28;20186;-46
2022/07/05 08:11:42;;;;;;;2.50;1.87;;;26.60;51.30;;;;;;5094504;28;20483;-46
2022/07/05 08:14:08;;;;;;;4.97;1.70;;;26.70;50.20;;;;;;5094591;28;20679;-47
2022/07/05 08:16:34;;;;;;;3.70;2.10;;;26.80;49.60;;;;;;5092930;28;20427;-48
2022/07/05 08:21:44;;;;;;;3.40;2.23;;;27.10;50.00;;;;;;5095484;28;20625;-47
2022/07/05 08:24:12;;;;;;;4.00;1.73;;;27.40;50.10;;;;;;5094138;28;20452;-46
2022/07/05 08:26:38;;;;;;;3.33;1.73;;;27.70;48.80;;;;;;5094981;28;20404;-47
2022/07/05 08:29:07;;;;;;;2.90;1.93;;;27.70;47.20;;;;;;5094408;28;20885;-48
2022/07/05 08:31:44;;;;;;;3.83;1.70;;;27.80;46.60;;;;;;5092322;28;20469;-48
2022/07/05 08:34:10;;;;;;;4.30;1.60;;;27.90;47.20;;;;;;5093548;28;20472;-46
2022/07/05 08:36:36;;;;;;;1.73;1.50;;;28.00;47.50;;;;;;5093608;28;20407;-46
2022/07/05 08:39:03;;;;;;;2.70;1.57;;;28.20;47.60;;;;;;5092302;28;20447;-47
2022/07/05 08:41:29;;;;;;;2.00;1.80;;;28.30;47.00;;;;;;5093612;28;20407;-47
2022/07/05 08:43:56;;;;;;;1.90;1.60;;;28.40;47.80;;;;;;5091804;28;20422;-46
2022/07/05 08:46:23;;;;;;;1.90;1.80;;;28.50;47.60;;;;;;5092990;28;20418;-47
2022/07/05 08:48:50;;;;;;;2.03;1.70;;;28.60;46.40;;;;;;5093177;28;20506;-46
2022/07/05 08:51:18;;;;;;;4.47;1.60;;;28.80;44.90;;;;;;5093143;28;21084;-48
2022/07/05 08:53:44;;;;;;;3.50;2.00;;;29.00;46.20;;;;;;5093581;28;20455;-47
2022/07/05 08:56:12;;;;;;;3.50;1.40;;;29.10;46.00;;;;;;5092611;28;20427;-47
2022/07/05 08:58:38;;;;;;;1.73;1.40;;;29.40;46.00;;;;;;5092800;28;20897;-46
2022/07/05 09:01:05;;;;;;;2.90;2.03;;;29.60;45.40;;;;;;5092445;28;21046;-47
2022/07/05 09:03:42;;;;;;;1.60;1.50;;;29.90;44.80;;;;;;5093601;28;20444;-47
2022/07/05 09:06:10;;;;;;;3.10;1.97;;;30.10;44.40;;;;;;5094035;28;20949;-47
2022/07/05 09:08:40;;;;;;;2.47;1.80;;;30.30;43.50;;;;;;5095439;28;20462;-45
2022/07/05 09:11:11;;;;;;;4.13;1.90;;;30.40;42.90;;;;;;5095979;28;20982;-54
2022/07/05 09:13:39;;;;;;;3.33;1.70;;;30.50;43.00;;;;;;5096562;28;20464;-48
2022/07/05 09:16:05;;;;;;;2.27;1.70;;;30.70;42.80;;;;;;5095554;28;20418;-47
2022/07/05 09:18:45;;;;;;;2.47;1.80;;;30.80;42.90;;;;;;5099714;28;20418;-46
2022/07/05 09:21:21;;;;;;;2.57;2.37;;;30.90;43.10;;;;;;5100336;28;20944;-47
2022/07/05 09:24:00;;;;;;;2.33;2.10;;;31.00;41.70;;;;;;5097765;28;20422;-47
2022/07/05 09:26:37;;;;;;;2.00;1.80;;;30.70;42.50;;;;;;5098064;28;20825;-47
2022/07/05 09:29:04;;;;;;;2.07;1.53;;;30.50;40.70;;;;;;5097830;28;20412;-46
2022/07/05 09:31:32;;;;;;;2.53;1.77;;;30.60;40.70;;;;;;5097135;28;20436;-48
2022/07/05 09:34:09;;;;;;;2.23;1.73;;;30.50;39.60;;;;;;5098844;28;20447;-48
2022/07/05 09:36:56;;;;;;;2.30;1.60;;;30.10;39.20;;;;;;5097183;28;20493;-47
2022/07/05 09:39:36;;;;;;;4.63;1.53;;;29.60;40.00;;;;;;5097230;28;20449;-48
2022/07/05 09:42:26;;;;;;;2.53;1.50;;;29.00;41.70;;;;;;5097980;28;20422;-47
2022/07/05 09:44:57;;;;;;;2.13;1.50;;;28.50;41.80;;;;;;5099061;28;20409;-47
2022/07/05 09:47:25;;;;;;;2.53;1.80;;;28.60;41.40;;;;;;5099163;28;20423;-46
2022/07/05 09:49:52;;;;;;;2.57;1.73;;;29.10;42.20;;;;;;5098247;28;20490;-47
2022/07/05 09:52:34;;;;;;;1.83;1.50;;;29.20;40.40;;;;;;5099095;28;20433;-46
2022/07/05 09:55:10;;;;;;;1.50;1.30;;;29.00;39.80;;;;;;5099081;28;20393;-46
2022/07/05 09:57:40;;;;;;;3.30;1.53;;;28.70;40.70;;;;;;5097986;28;20418;-47
2022/07/05 10:00:06;;;;;;;3.67;1.70;;;28.40;41.50;;;;;;5098108;28;20418;-46
2022/07/05 10:02:45;;;;;;;1.87;1.77;;;28.10;41.70;;;;;;5097640;28;20405;-46
2022/07/05 10:05:18;;;;;;;2.90;1.50;;;28.10;42.00;;;;;;5096227;28;20426;-46
2022/07/05 10:07:47;;;;;;;1.80;1.47;;;28.40;38.20;;;;;;5096163;28;20441;-46
2022/07/05 10:10:15;;;;;;;3.63;1.50;;;28.60;38.00;;;;;;5097156;28;20472;-48
2022/07/05 10:12:45;;;;;;;2.00;1.70;;;29.10;39.90;;;;;;5095284;28;20476;-46
2022/07/05 10:15:13;;;;;;;3.60;1.60;;;29.60;38.80;;;;;;5096583;28;20504;-46
2022/07/05 10:17:54;;;;;;;2.00;1.60;;;30.00;39.00;;;;;;5095774;28;20781;-45
2022/07/05 10:20:29;;;;;;;3.70;1.90;;;30.40;39.50;;;;;;5095785;28;20496;-49
2022/07/05 10:22:56;;;;;;;1.70;1.50;;;30.80;38.20;;;;;;5095818;28;20481;-46
2022/07/05 10:25:23;;;;;;;3.07;2.07;;;31.20;37.60;;;;;;5095964;28;20434;-48
2022/07/05 10:27:53;;;;;;;2.40;2.00;;;31.60;39.10;;;;;;5096743;28;20425;-45
2022/07/05 10:30:20;;;;;;;2.43;2.00;;;31.90;38.00;;;;;;5094994;28;20505;-46
2022/07/05 10:32:46;;;;;;;1.73;1.50;;;31.80;39.00;;;;;;5091616;28;20577;-47
2022/07/05 10:35:12;;;;;;;2.87;1.60;;;31.40;37.70;;;;;;5097015;28;21013;-48
2022/07/05 10:37:37;;;;;;;2.30;1.40;;;30.90;37.30;;;;;;5095144;28;20435;-46
2022/07/05 10:40:05;;;;;;;1.90;1.43;;;31.00;37.60;;;;;;5096201;28;20187;-46
2022/07/05 10:42:37;;;;;;;2.27;1.30;;;31.40;38.20;;;;;;5092946;28;20192;-46
2022/07/05 10:45:03;;;;;;;2.23;1.70;;;31.80;36.80;;;;;;5096136;28;20732;-48
2022/07/05 10:47:29;;;;;;;1.90;1.33;;;32.30;35.60;;;;;;5095352;28;20820;-46
2022/07/05 10:50:04;;;;;;;2.93;1.60;;;32.70;35.00;;;;;;5095315;28;20910;-49
2022/07/05 10:52:30;;;;;;;2.27;1.70;;;33.10;35.20;;;;;;5094014;28;20509;-47
2022/07/05 10:55:17;;;;;;;3.10;1.70;;;33.40;34.20;;;;;;5096836;28;20418;-47
2022/07/05 10:57:43;;;;;;;2.27;1.70;;;33.90;35.10;;;;;;5097352;28;20172;-47
2022/07/05 11:00:10;;;;;;;2.77;1.60;;;34.10;35.50;;;;;;5093066;28;20403;-46
2022/07/05 11:02:37;;;;;;;2.33;1.20;;;33.80;34.90;;;;;;5092255;28;20203;-46
2022/07/05 11:05:03;;;;;;;4.20;1.70;;;33.10;34.70;;;;;;5094348;28;20436;-45
2022/07/05 11:08:01;;;;;;;3.63;1.70;;;31.90;35.60;;;;;;5095158;28;20996;-47
2022/07/05 11:10:27;;;;;;;1.70;1.53;;;31.00;36.50;;;;;;5095510;28;20442;-46
2022/07/05 11:12:53;;;;;;;3.70;1.80;;;30.30;37.00;;;;;;5094063;28;20838;-46
2022/07/05 11:15:18;;;;;;;1.93;1.50;;;29.70;37.50;;;;;;5094217;28;20257;-46
2022/07/05 11:17:44;;;;;;;2.07;1.67;;;29.50;37.60;;;;;;5095054;28;20275;-46
2022/07/05 11:20:11;;;;;;;3.73;1.87;;;29.80;37.30;;;;;;5093799;28;20214;-46
2022/07/05 11:23:12;;;;;;;2.33;2.07;;;30.40;37.50;;;;;;5092334;28;20597;-46
2022/07/05 11:25:40;;;;;;;6.67;2.00;;;30.70;37.20;;;;;;5094112;28;20466;-47
2022/07/05 11:28:18;;;;;;;2.00;1.80;;;31.00;37.70;;;;;;5124694;27;20400;-50
2022/07/05 11:30:52;;;;;;;2.07;1.70;;;31.50;37.50;;;;;;5074468;28;20396;-47
2022/07/05 11:33:40;;;;;;;3.63;2.00;;;31.80;36.60;;;;;;5072751;28;20465;-47
2022/07/05 11:36:26;;;;;;;1.90;1.53;;;32.20;36.30;;;;;;5074508;28;20823;-48
2022/07/05 11:39:20;;;;;;;1.90;1.70;;;32.50;36.90;;;;;;5075455;28;20847;-46
2022/07/05 11:41:47;;;;;;;2.93;1.93;;;33.00;36.80;;;;;;5074203;28;20455;-46
2022/07/05 11:44:14;;;;;;;2.50;1.70;;;33.50;34.70;;;;;;5072444;28;20398;-48
2022/07/05 11:46:41;;;;;;;2.43;1.90;;;33.60;35.70;;;;;;5070671;28;20430;-47
2022/07/05 11:49:06;;;;;;;2.50;1.70;;;33.60;34.10;;;;;;5073287;28;20427;-46
2022/07/05 11:51:32;;;;;;;1.73;1.60;;;34.10;34.20;;;;;;5073293;28;20430;-47
2022/07/05 11:53:58;;;;;;;1.70;1.40;;;34.40;34.70;;;;;;5072498;28;20209;-47
2022/07/05 11:56:24;;;;;;;2.70;1.70;;;34.50;33.40;;;;;;5054860;28;20277;-48
2022/07/05 11:58:49;;;;;;;2.30;1.63;;;34.60;35.60;;;;;;5074691;28;20255;-47
2022/07/05 12:01:15;;;;;;;2.83;1.90;;;34.90;34.90;;;;;;5074739;28;20177;-45
2022/07/05 12:03:41;;;;;;;1.67;1.40;;;35.20;33.70;;;;;;5074262;28;20184;-46
2022/07/05 12:06:15;;;;;;;3.47;1.90;;;34.90;33.60;;;;;;5074578;28;20189;-45
2022/07/05 12:08:41;;;;;;;2.87;1.80;;;34.20;34.10;;;;;;5074563;28;20559;-46
2022/07/05 12:13:54;;;;;;;2.23;1.97;;;33.80;35.60;;;;;;5073214;28;20247;-47
2022/07/05 12:16:20;;;;;;;3.00;1.77;;;34.10;33.60;;;;;;5074339;28;20423;-46
2022/07/05 12:18:56;;;;;;;2.50;1.80;;;34.60;34.60;;;;;;5074533;28;20279;-46
2022/07/05 12:21:25;;;;;;;3.10;1.60;;;35.10;34.30;;;;;;5074429;28;20253;-46
2022/07/05 12:23:51;;;;;;;2.20;1.93;;;35.20;33.50;;;;;;5073585;28;20406;-45
2022/07/05 12:26:18;;;;;;;3.00;2.10;;;34.90;32.70;;;;;;5074186;28;20436;-44
2022/07/05 12:28:45;;;;;;;16.73;3.10;;;34.90;33.00;;;;;;5075074;28;20416;-46
2022/07/05 12:31:18;;;;;;;3.53;2.00;;;35.10;32.80;;;;;;5075079;28;20404;-46
2022/07/05 12:33:43;;;;;;;2.87;1.70;;;34.60;33.70;;;;;;5076651;28;20449;-48
2022/07/05 12:36:16;;;;;;;2.50;1.70;;;34.70;33.20;;;;;;5075799;28;20398;-46
2022/07/05 12:38:42;;;;;;;1.73;1.53;;;34.90;34.30;;;;;;5075228;28;20721;-47
2022/07/05 12:41:08;;;;;;;1.97;1.63;;;35.10;33.90;;;;;;5074376;28;20485;-47
2022/07/05 12:43:52;;;;;;;2.60;1.87;;;35.50;34.70;;;;;;5073721;28;20185;-47
2022/07/05 12:46:18;;;;;;;2.43;1.50;;;35.90;34.40;;;;;;5073920;28;20399;-46
2022/07/05 12:48:45;;;;;;;2.10;1.67;;;36.10;33.30;;;;;;5073173;28;20503;-47
2022/07/05 12:51:10;;;;;;;2.10;1.90;;;36.20;33.20;;;;;;5072830;28;20489;-47
2022/07/05 12:59:34;;;;;;;2.23;1.70;;;35.80;32.50;;;;;;5073570;28;20539;-48
2022/07/05 13:02:00;;;;;;;2.40;1.40;;;35.90;32.10;;;;;;5071958;28;20403;-47
2022/07/05 13:04:25;;;;;;;4.23;2.30;;;36.00;32.20;;;;;;5073125;28;20394;-46
2022/07/05 13:06:55;;;;;;;2.80;1.73;;;35.70;31.20;;;;;;5072971;28;20456;-46